• Join FlightAware (Why Join?)
  • Login
  • US Flag 
02:20AM EDT


 

Airport Tracker/Info


-or-


 

Live Flight TrackerFlight Track Log ✈ SWA1188 ✈ 25-May-2013 ✈ KBWI - KALB

Flight Track Log - Related Links

Times and Time Zones

All times are in EDT time to prevent confusion due to time zone crossing. See the SWA1188 flight status page for this flight to view local times or setup timezone preferences in your user account.

Time Position Orientation Groundspeed Altitude Reporting Facility
EDT Latitude Longitude Course Direction KTS MPH feet Rate Location/Type
09:01PM 39.1667 -76.7500 67° East 208 239 3,300  Level Potomac TRACON
09:03PM 39.0778 -76.6236 132° Southeast 263 303 9,500 2,760 Climbing Washington Center
09:04PM 39.0994 -76.5197 75° East 246 283 12,600 3,180 Climbing Washington Center
09:05PM 39.0606 -76.4042 113° Southeast 305 351 15,800 3,120 Climbing Washington Center
09:06PM 39.0469 -76.2811 98° East 323 372 18,800 2,580 Climbing Washington Center
09:07PM 39.3836 -76.0160 67° East  Level FlightAware Approximate
09:07PM 39.0642 -76.1478 81° East 364 419 21,000  Level Washington Center
09:08PM 39.1208 -76.0303 58° Northeast 364 419 22,500 960 Climbing Washington Center
09:09PM 39.1839 -75.9022 58° Northeast 382 440 23,000 240 Climbing Washington Center
09:10PM 39.2592 -75.7925 48° Northeast 398 458 23,000 600 Level Washington Center
09:11PM 39.3406 -75.6881 45° Northeast 408 470 24,300 1,500 Climbing Washington Center
09:12PM 39.4219 -75.5861 44° Northeast 403 464 26,000 1,380 Climbing Washington Center
09:13PM 39.4989 -75.4839 46° Northeast 398 458 27,200 1,140 Climbing Washington Center
09:15PM 39.6189 -75.3281 45° Northeast 387 445 29,000 660 Climbing New York Center
09:16PM 39.6936 -75.2278 46° Northeast 382 440 29,000  Level New York Center
09:17PM 39.7711 -75.1111 49° Northeast 382 440 29,000  Level New York Center
09:18PM 39.8514 -75.0189 41° Northeast 382 440 29,000  Level New York Center
09:19PM 39.9256 -74.9314 42° Northeast 388 447 29,000  Level New York Center
09:20PM 40.0169 -74.8231 42° Northeast 393 452 29,000  Level New York Center
09:21PM 40.0972 -74.7300 42° Northeast 388 447 29,000  Level New York Center
09:22PM 40.1775 -74.6311 43° Northeast 388 447 29,000  Level New York Center
09:23PM 40.2539 -74.5294 45° Northeast 388 447 29,000  Level New York Center
09:24PM 40.3339 -74.4303 43° Northeast 382 440 29,000  Level New York Center
09:25PM 40.4119 -74.3336 43° Northeast 382 440 29,000  Level New York Center
09:26PM 40.4942 -74.2342 43° Northeast 387 445 29,000  Level New York Center
09:27PM 40.5719 -74.1344 44° Northeast 387 445 29,000 -1,320 Level New York Center
09:29PM 40.7547 -73.9086 43° Northeast 371 427 24,600 -1,500 Descending Boston Center
09:30PM 40.8119 -73.8386 43° Northeast 366 421 24,000 -300 Descending Boston Center
09:31PM 40.8967 -73.7361 42° Northeast 356 410 24,000  Level Boston Center
09:32PM 40.9686 -73.6414 45° Northeast 350 403 24,000 -300 Level Boston Center
09:33PM 41.0467 -73.5519 41° Northeast 362 417 23,500 -660 Descending Boston Center
09:34PM 41.1197 -73.5256 15° North 355 409 22,700 -1,020 Descending Boston Center
09:35PM 41.2319 -73.5469 352° North 323 372 21,500 -1,140 Descending Boston Center
09:36PM 41.3236 -73.5594 354° North 323 372 20,500 -780 Descending Boston Center
09:37PM 41.4028 -73.5747 352° North 328 377 20,000 -300 Descending Boston Center
09:38PM 41.4942 -73.5875 354° North 328 377 20,000  Level Boston Center
09:39PM 41.5919 -73.6086 351° North 328 377 20,000  Level Boston Center
09:40PM 41.6814 -73.6214 354° North 323 372 20,000  Level Boston Center
09:41PM 41.7708 -73.6397 351° North 323 372 20,000  Level Boston Center
09:42PM 41.8231 -73.6464 355° North 328 377 20,000 -120 Level Boston Center
09:42PM 41.8519 -73.6497 355° North 331 381 19,900 -1,380 Descending Boston Center
09:43PM 41.9414 -73.6681 351° North 317 365 18,200 -1,920 Descending Boston Center
09:44PM 42.0267 -73.6808 354° North 309 356 16,100 -2,040 Descending Boston Center
09:45PM 42.1122 -73.6939 354° North 313 360 14,100 -2,040 Descending Boston Center
09:46PM 42.1972 -73.7125 351° North 314 361 12,100 -1,800 Descending Boston Center
09:47PM 42.2806 -73.7281 352° North 302 348 10,500 -1,560 Descending Boston Center
09:48PM 42.3492 -73.7492 347° North 240 276 9,000 -1,860 Descending Boston Center
09:49PM 42.4178 -73.7647 350° North 227 261 6,800 -2,340 Descending Boston Center
09:50PM 42.4656 -73.7769 349° North 205 236 4,600 -2,220 Descending Boston Center
09:51PM 42.5153 -73.7894 350° North 176 203 2,600 -1,020 Descending Boston Center
09:52PM 42.5653 -73.8017 350° North 167 192 2,600  Level Boston Center
09:53PM 42.6111 -73.8028 359° North 171 197 2,600 -420 Level Boston Center
09:54PM 42.6589 -73.8036 359° North 168 193 1,800 -720 Descending Boston Center
09:55PM 42.6903 -73.8044 359° North 108 124 1,200 -600 Descending Boston Center
09:56PM 42.7236 -73.8081 355° North 115 132 600 -600 Descending Boston Center
09:58PM 42.7333 -73.8000 350° North  Level FlightAware Approximate
10:05PM 42.7491 -73.8020 350° North  Level Estimated
10:06PM 42.7491 -73.8020 350° North  Level Estimated
10:07PM 42.7491 -73.8020 350° North  Level Estimated